sensor_id;sensor_type;location;lat;lon;timestamp;P1;durP1;ratioP1;P2;durP2;ratioP2
4957;SDS011;2494;51.872;9.688;2022-09-29T00:02:18;6.83;;;6.07;;
4957;SDS011;2494;51.872;9.688;2022-09-29T00:04:44;8.20;;;7.40;;
4957;SDS011;2494;51.872;9.688;2022-09-29T00:07:12;8.60;;;6.80;;
4957;SDS011;2494;51.872;9.688;2022-09-29T00:09:39;8.63;;;7.77;;
4957;SDS011;2494;51.872;9.688;2022-09-29T00:12:05;11.77;;;10.00;;
4957;SDS011;2494;51.872;9.688;2022-09-29T00:14:32;14.90;;;10.90;;
4957;SDS011;2494;51.872;9.688;2022-09-29T00:16:59;11.57;;;10.33;;
4957;SDS011;2494;51.872;9.688;2022-09-29T00:19:25;14.90;;;10.10;;
4957;SDS011;2494;51.872;9.688;2022-09-29T00:21:52;9.53;;;8.57;;
4957;SDS011;2494;51.872;9.688;2022-09-29T00:24:20;7.60;;;6.80;;
4957;SDS011;2494;51.872;9.688;2022-09-29T00:26:47;6.63;;;5.77;;
4957;SDS011;2494;51.872;9.688;2022-09-29T00:29:14;6.10;;;5.60;;
4957;SDS011;2494;51.872;9.688;2022-09-29T00:31:40;12.00;;;7.13;;
4957;SDS011;2494;51.872;9.688;2022-09-29T00:34:07;9.53;;;6.10;;
4957;SDS011;2494;51.872;9.688;2022-09-29T00:36:34;7.83;;;7.03;;
4957;SDS011;2494;51.872;9.688;2022-09-29T00:39:00;9.90;;;7.97;;
4957;SDS011;2494;51.872;9.688;2022-09-29T00:41:29;12.80;;;8.17;;
4957;SDS011;2494;51.872;9.688;2022-09-29T00:43:57;9.53;;;6.87;;
4957;SDS011;2494;51.872;9.688;2022-09-29T00:49:12;11.90;;;8.43;;
4957;SDS011;2494;51.872;9.688;2022-09-29T00:51:41;12.10;;;9.47;;
4957;SDS011;2494;51.872;9.688;2022-09-29T00:54:09;10.60;;;8.13;;
4957;SDS011;2494;51.872;9.688;2022-09-29T00:56:37;12.50;;;9.83;;
4957;SDS011;2494;51.872;9.688;2022-09-29T00:59:07;11.40;;;8.90;;
4957;SDS011;2494;51.872;9.688;2022-09-29T01:01:34;10.70;;;9.10;;
4957;SDS011;2494;51.872;9.688;2022-09-29T01:04:02;13.17;;;10.07;;
4957;SDS011;2494;51.872;9.688;2022-09-29T01:06:31;15.53;;;10.03;;
4957;SDS011;2494;51.872;9.688;2022-09-29T01:09:01;12.43;;;9.20;;
4957;SDS011;2494;51.872;9.688;2022-09-29T01:11:28;13.77;;;10.00;;
4957;SDS011;2494;51.872;9.688;2022-09-29T01:13:56;12.00;;;9.40;;
4957;SDS011;2494;51.872;9.688;2022-09-29T01:16:27;15.00;;;11.00;;
4957;SDS011;2494;51.872;9.688;2022-09-29T01:18:55;14.33;;;11.13;;
4957;SDS011;2494;51.872;9.688;2022-09-29T01:21:23;15.80;;;11.07;;
4957;SDS011;2494;51.872;9.688;2022-09-29T01:26:50;17.13;;;11.97;;
4957;SDS011;2494;51.872;9.688;2022-09-29T01:29:31;15.43;;;10.67;;
4957;SDS011;2494;51.872;9.688;2022-09-29T01:32:05;13.97;;;10.40;;
4957;SDS011;2494;51.872;9.688;2022-09-29T01:34:36;14.07;;;10.40;;
4957;SDS011;2494;51.872;9.688;2022-09-29T01:37:09;17.27;;;11.00;;
4957;SDS011;2494;51.872;9.688;2022-09-29T01:39:37;16.93;;;10.90;;
4957;SDS011;2494;51.872;9.688;2022-09-29T01:42:07;13.73;;;10.77;;
4957;SDS011;2494;51.872;9.688;2022-09-29T01:44:38;19.00;;;10.70;;
4957;SDS011;2494;51.872;9.688;2022-09-29T01:47:08;15.20;;;10.57;;
4957;SDS011;2494;51.872;9.688;2022-09-29T01:49:37;11.80;;;9.60;;
4957;SDS011;2494;51.872;9.688;2022-09-29T01:52:05;16.57;;;10.50;;
4957;SDS011;2494;51.872;9.688;2022-09-29T01:54:35;14.23;;;9.70;;
4957;SDS011;2494;51.872;9.688;2022-09-29T01:57:05;15.03;;;10.73;;
4957;SDS011;2494;51.872;9.688;2022-09-29T01:59:36;15.67;;;10.43;;
4957;SDS011;2494;51.872;9.688;2022-09-29T02:02:04;14.97;;;10.53;;
4957;SDS011;2494;51.872;9.688;2022-09-29T02:04:33;15.33;;;10.47;;
4957;SDS011;2494;51.872;9.688;2022-09-29T02:07:02;18.40;;;11.30;;
4957;SDS011;2494;51.872;9.688;2022-09-29T02:09:30;18.40;;;12.20;;
4957;SDS011;2494;51.872;9.688;2022-09-29T02:11:59;21.67;;;12.00;;
4957;SDS011;2494;51.872;9.688;2022-09-29T02:14:27;18.50;;;12.57;;
4957;SDS011;2494;51.872;9.688;2022-09-29T02:16:56;20.73;;;13.20;;
4957;SDS011;2494;51.872;9.688;2022-09-29T02:19:25;18.40;;;11.83;;
4957;SDS011;2494;51.872;9.688;2022-09-29T02:21:56;20.03;;;12.90;;
4957;SDS011;2494;51.872;9.688;2022-09-29T02:24:23;20.60;;;13.30;;
4957;SDS011;2494;51.872;9.688;2022-09-29T02:26:50;21.00;;;13.47;;
4957;SDS011;2494;51.872;9.688;2022-09-29T02:29:17;21.37;;;14.37;;
4957;SDS011;2494;51.872;9.688;2022-09-29T02:31:44;26.43;;;15.17;;
4957;SDS011;2494;51.872;9.688;2022-09-29T02:34:11;27.50;;;16.07;;
4957;SDS011;2494;51.872;9.688;2022-09-29T02:36:39;28.63;;;15.50;;
4957;SDS011;2494;51.872;9.688;2022-09-29T02:39:10;27.50;;;15.30;;
4957;SDS011;2494;51.872;9.688;2022-09-29T02:41:42;26.10;;;15.57;;
4957;SDS011;2494;51.872;9.688;2022-09-29T02:44:24;23.00;;;15.07;;
4957;SDS011;2494;51.872;9.688;2022-09-29T02:47:00;22.33;;;14.87;;
4957;SDS011;2494;51.872;9.688;2022-09-29T02:49:38;21.53;;;14.00;;
4957;SDS011;2494;51.872;9.688;2022-09-29T02:52:09;24.37;;;14.83;;
4957;SDS011;2494;51.872;9.688;2022-09-29T02:54:44;22.60;;;14.27;;
4957;SDS011;2494;51.872;9.688;2022-09-29T02:57:15;21.87;;;13.83;;
4957;SDS011;2494;51.872;9.688;2022-09-29T02:59:44;19.20;;;12.73;;
4957;SDS011;2494;51.872;9.688;2022-09-29T03:02:15;19.57;;;13.60;;
4957;SDS011;2494;51.872;9.688;2022-09-29T03:04:48;18.60;;;13.37;;
4957;SDS011;2494;51.872;9.688;2022-09-29T03:07:14;21.60;;;13.50;;
4957;SDS011;2494;51.872;9.688;2022-09-29T03:09:41;18.73;;;12.47;;
4957;SDS011;2494;51.872;9.688;2022-09-29T03:12:10;21.27;;;12.83;;
4957;SDS011;2494;51.872;9.688;2022-09-29T03:14:36;23.67;;;15.00;;
4957;SDS011;2494;51.872;9.688;2022-09-29T03:17:03;18.80;;;12.50;;
4957;SDS011;2494;51.872;9.688;2022-09-29T03:19:30;16.70;;;12.20;;
4957;SDS011;2494;51.872;9.688;2022-09-29T03:21:56;13.23;;;10.50;;
4957;SDS011;2494;51.872;9.688;2022-09-29T03:24:23;19.07;;;12.73;;
4957;SDS011;2494;51.872;9.688;2022-09-29T03:26:50;17.23;;;12.60;;
4957;SDS011;2494;51.872;9.688;2022-09-29T03:29:18;17.70;;;11.10;;
4957;SDS011;2494;51.872;9.688;2022-09-29T03:31:45;25.63;;;13.17;;
4957;SDS011;2494;51.872;9.688;2022-09-29T03:34:11;30.20;;;11.63;;
4957;SDS011;2494;51.872;9.688;2022-09-29T03:36:38;50.23;;;13.83;;
4957;SDS011;2494;51.872;9.688;2022-09-29T03:39:05;66.57;;;12.50;;
4957;SDS011;2494;51.872;9.688;2022-09-29T03:41:32;119.43;;;15.90;;
4957;SDS011;2494;51.872;9.688;2022-09-29T03:43:59;118.57;;;16.37;;
4957;SDS011;2494;51.872;9.688;2022-09-29T03:46:27;234.70;;;21.50;;
4957;SDS011;2494;51.872;9.688;2022-09-29T03:48:53;114.57;;;15.30;;
4957;SDS011;2494;51.872;9.688;2022-09-29T03:51:20;167.33;;;17.67;;
4957;SDS011;2494;51.872;9.688;2022-09-29T03:53:47;109.60;;;13.60;;
4957;SDS011;2494;51.872;9.688;2022-09-29T03:56:13;202.83;;;20.57;;
4957;SDS011;2494;51.872;9.688;2022-09-29T03:58:40;187.07;;;19.60;;
4957;SDS011;2494;51.872;9.688;2022-09-29T04:01:13;128.03;;;17.77;;
4957;SDS011;2494;51.872;9.688;2022-09-29T04:03:41;113.63;;;14.37;;
4957;SDS011;2494;51.872;9.688;2022-09-29T04:06:07;154.63;;;15.80;;
4957;SDS011;2494;51.872;9.688;2022-09-29T04:08:34;89.90;;;13.70;;
4957;SDS011;2494;51.872;9.688;2022-09-29T04:11:01;112.53;;;14.70;;
4957;SDS011;2494;51.872;9.688;2022-09-29T04:13:28;66.70;;;11.80;;
4957;SDS011;2494;51.872;9.688;2022-09-29T04:15:56;58.43;;;11.37;;
4957;SDS011;2494;51.872;9.688;2022-09-29T04:18:23;146.20;;;14.23;;
4957;SDS011;2494;51.872;9.688;2022-09-29T04:20:51;67.23;;;12.03;;
4957;SDS011;2494;51.872;9.688;2022-09-29T04:23:18;54.10;;;10.90;;
4957;SDS011;2494;51.872;9.688;2022-09-29T04:25:45;82.97;;;12.40;;
4957;SDS011;2494;51.872;9.688;2022-09-29T04:28:12;59.80;;;10.40;;
4957;SDS011;2494;51.872;9.688;2022-09-29T04:30:38;124.77;;;15.20;;
4957;SDS011;2494;51.872;9.688;2022-09-29T04:33:05;95.13;;;15.13;;
4957;SDS011;2494;51.872;9.688;2022-09-29T04:35:32;71.07;;;11.77;;
4957;SDS011;2494;51.872;9.688;2022-09-29T04:38:00;86.73;;;13.10;;
4957;SDS011;2494;51.872;9.688;2022-09-29T04:40:27;63.03;;;10.70;;
4957;SDS011;2494;51.872;9.688;2022-09-29T04:45:45;117.00;;;15.60;;
4957;SDS011;2494;51.872;9.688;2022-09-29T04:48:12;121.57;;;15.37;;
4957;SDS011;2494;51.872;9.688;2022-09-29T04:50:38;71.40;;;15.20;;
4957;SDS011;2494;51.872;9.688;2022-09-29T04:53:06;117.00;;;15.87;;
4957;SDS011;2494;51.872;9.688;2022-09-29T04:55:33;72.27;;;15.83;;
4957;SDS011;2494;51.872;9.688;2022-09-29T04:58:02;136.90;;;17.37;;
4957;SDS011;2494;51.872;9.688;2022-09-29T05:00:29;95.97;;;14.90;;
4957;SDS011;2494;51.872;9.688;2022-09-29T05:02:56;119.57;;;16.37;;
4957;SDS011;2494;51.872;9.688;2022-09-29T05:05:22;82.67;;;14.23;;
4957;SDS011;2494;51.872;9.688;2022-09-29T05:07:49;86.87;;;14.30;;
4957;SDS011;2494;51.872;9.688;2022-09-29T05:10:17;62.47;;;12.63;;
4957;SDS011;2494;51.872;9.688;2022-09-29T05:12:46;162.73;;;15.20;;
4957;SDS011;2494;51.872;9.688;2022-09-29T05:15:13;99.90;;;13.70;;
4957;SDS011;2494;51.872;9.688;2022-09-29T05:17:39;84.10;;;13.97;;
4957;SDS011;2494;51.872;9.688;2022-09-29T05:20:06;131.20;;;17.27;;
4957;SDS011;2494;51.872;9.688;2022-09-29T05:22:33;56.97;;;11.90;;
4957;SDS011;2494;51.872;9.688;2022-09-29T05:24:59;76.07;;;12.90;;
4957;SDS011;2494;51.872;9.688;2022-09-29T05:27:28;157.07;;;15.90;;
4957;SDS011;2494;51.872;9.688;2022-09-29T05:29:54;73.47;;;12.37;;
4957;SDS011;2494;51.872;9.688;2022-09-29T05:32:23;65.63;;;13.47;;
4957;SDS011;2494;51.872;9.688;2022-09-29T05:34:50;153.33;;;16.40;;
4957;SDS011;2494;51.872;9.688;2022-09-29T05:37:17;106.93;;;14.40;;
4957;SDS011;2494;51.872;9.688;2022-09-29T05:39:48;119.13;;;13.63;;
4957;SDS011;2494;51.872;9.688;2022-09-29T05:42:15;101.03;;;13.30;;
4957;SDS011;2494;51.872;9.688;2022-09-29T05:44:43;88.77;;;15.60;;
4957;SDS011;2494;51.872;9.688;2022-09-29T05:47:10;99.00;;;13.27;;
4957;SDS011;2494;51.872;9.688;2022-09-29T05:49:37;108.17;;;13.43;;
4957;SDS011;2494;51.872;9.688;2022-09-29T05:52:03;71.53;;;12.43;;
4957;SDS011;2494;51.872;9.688;2022-09-29T05:54:30;72.20;;;12.50;;
4957;SDS011;2494;51.872;9.688;2022-09-29T05:56:56;72.33;;;11.33;;
4957;SDS011;2494;51.872;9.688;2022-09-29T05:59:23;82.30;;;13.03;;
4957;SDS011;2494;51.872;9.688;2022-09-29T06:01:51;84.33;;;12.80;;
4957;SDS011;2494;51.872;9.688;2022-09-29T06:04:17;85.40;;;13.00;;
4957;SDS011;2494;51.872;9.688;2022-09-29T06:06:44;58.17;;;11.20;;
4957;SDS011;2494;51.872;9.688;2022-09-29T06:09:12;45.97;;;10.70;;
4957;SDS011;2494;51.872;9.688;2022-09-29T06:11:38;66.23;;;11.73;;
4957;SDS011;2494;51.872;9.688;2022-09-29T06:14:05;50.63;;;11.67;;
4957;SDS011;2494;51.872;9.688;2022-09-29T06:16:32;69.60;;;10.97;;
4957;SDS011;2494;51.872;9.688;2022-09-29T06:19:00;73.20;;;12.00;;
4957;SDS011;2494;51.872;9.688;2022-09-29T06:21:27;77.13;;;12.80;;
4957;SDS011;2494;51.872;9.688;2022-09-29T06:23:54;47.13;;;10.93;;
4957;SDS011;2494;51.872;9.688;2022-09-29T06:26:21;42.80;;;9.50;;
4957;SDS011;2494;51.872;9.688;2022-09-29T06:28:47;63.73;;;10.80;;
4957;SDS011;2494;51.872;9.688;2022-09-29T06:31:15;42.73;;;11.07;;
4957;SDS011;2494;51.872;9.688;2022-09-29T06:33:42;41.40;;;11.37;;
4957;SDS011;2494;51.872;9.688;2022-09-29T06:36:12;60.47;;;10.60;;
4957;SDS011;2494;51.872;9.688;2022-09-29T06:38:59;20.33;;;10.23;;
4957;SDS011;2494;51.872;9.688;2022-09-29T06:41:26;33.43;;;10.50;;
4957;SDS011;2494;51.872;9.688;2022-09-29T06:43:54;43.47;;;11.30;;
4957;SDS011;2494;51.872;9.688;2022-09-29T06:46:20;33.00;;;10.77;;
4957;SDS011;2494;51.872;9.688;2022-09-29T06:48:47;38.57;;;10.60;;
4957;SDS011;2494;51.872;9.688;2022-09-29T06:51:15;50.30;;;9.67;;
4957;SDS011;2494;51.872;9.688;2022-09-29T06:53:41;55.57;;;11.33;;
4957;SDS011;2494;51.872;9.688;2022-09-29T06:56:09;43.03;;;10.57;;
4957;SDS011;2494;51.872;9.688;2022-09-29T06:58:36;43.53;;;9.33;;
4957;SDS011;2494;51.872;9.688;2022-09-29T07:01:03;35.40;;;10.10;;
4957;SDS011;2494;51.872;9.688;2022-09-29T07:03:31;91.67;;;12.70;;
4957;SDS011;2494;51.872;9.688;2022-09-29T07:06:00;93.53;;;13.20;;
4957;SDS011;2494;51.872;9.688;2022-09-29T07:08:28;88.30;;;12.23;;
4957;SDS011;2494;51.872;9.688;2022-09-29T07:10:56;69.83;;;11.00;;
4957;SDS011;2494;51.872;9.688;2022-09-29T07:13:22;100.20;;;12.93;;
4957;SDS011;2494;51.872;9.688;2022-09-29T07:15:49;40.77;;;9.13;;
4957;SDS011;2494;51.872;9.688;2022-09-29T07:18:15;41.63;;;8.93;;
4957;SDS011;2494;51.872;9.688;2022-09-29T07:20:42;68.83;;;10.97;;
4957;SDS011;2494;51.872;9.688;2022-09-29T07:23:09;83.73;;;10.87;;
4957;SDS011;2494;51.872;9.688;2022-09-29T07:25:37;34.27;;;9.70;;
4957;SDS011;2494;51.872;9.688;2022-09-29T07:28:04;39.50;;;9.10;;
4957;SDS011;2494;51.872;9.688;2022-09-29T07:30:30;71.17;;;10.77;;
4957;SDS011;2494;51.872;9.688;2022-09-29T07:32:57;56.47;;;11.30;;
4957;SDS011;2494;51.872;9.688;2022-09-29T07:35:23;23.13;;;9.17;;
4957;SDS011;2494;51.872;9.688;2022-09-29T07:37:50;50.40;;;8.77;;
4957;SDS011;2494;51.872;9.688;2022-09-29T07:40:17;56.40;;;10.50;;
4957;SDS011;2494;51.872;9.688;2022-09-29T07:42:46;18.30;;;9.10;;
4957;SDS011;2494;51.872;9.688;2022-09-29T07:45:13;11.43;;;7.90;;
4957;SDS011;2494;51.872;9.688;2022-09-29T07:47:39;16.90;;;7.50;;
4957;SDS011;2494;51.872;9.688;2022-09-29T07:50:06;41.53;;;6.90;;
4957;SDS011;2494;51.872;9.688;2022-09-29T07:52:33;17.47;;;6.57;;
4957;SDS011;2494;51.872;9.688;2022-09-29T07:54:59;28.13;;;6.53;;
4957;SDS011;2494;51.872;9.688;2022-09-29T07:57:26;46.00;;;8.13;;
4957;SDS011;2494;51.872;9.688;2022-09-29T07:59:54;50.13;;;7.60;;
4957;SDS011;2494;51.872;9.688;2022-09-29T08:02:22;40.77;;;7.67;;
4957;SDS011;2494;51.872;9.688;2022-09-29T08:04:49;26.43;;;7.00;;
4957;SDS011;2494;51.872;9.688;2022-09-29T08:07:15;22.10;;;7.13;;
4957;SDS011;2494;51.872;9.688;2022-09-29T08:09:42;20.90;;;7.00;;
4957;SDS011;2494;51.872;9.688;2022-09-29T08:12:08;11.07;;;6.57;;
4957;SDS011;2494;51.872;9.688;2022-09-29T08:14:35;10.23;;;7.17;;
4957;SDS011;2494;51.872;9.688;2022-09-29T08:17:05;9.23;;;7.00;;
4957;SDS011;2494;51.872;9.688;2022-09-29T08:19:31;9.27;;;8.43;;
4957;SDS011;2494;51.872;9.688;2022-09-29T08:21:58;10.00;;;9.13;;
4957;SDS011;2494;51.872;9.688;2022-09-29T08:24:24;8.20;;;7.40;;
4957;SDS011;2494;51.872;9.688;2022-09-29T08:26:52;10.40;;;7.67;;
4957;SDS011;2494;51.872;9.688;2022-09-29T08:29:21;17.47;;;8.00;;
4957;SDS011;2494;51.872;9.688;2022-09-29T08:31:47;14.50;;;7.70;;
4957;SDS011;2494;51.872;9.688;2022-09-29T08:34:18;8.00;;;7.13;;
4957;SDS011;2494;51.872;9.688;2022-09-29T08:36:45;9.27;;;8.30;;
4957;SDS011;2494;51.872;9.688;2022-09-29T08:39:11;11.20;;;8.60;;
4957;SDS011;2494;51.872;9.688;2022-09-29T08:41:45;8.77;;;7.97;;
4957;SDS011;2494;51.872;9.688;2022-09-29T08:44:16;7.80;;;7.10;;
4957;SDS011;2494;51.872;9.688;2022-09-29T08:46:45;9.40;;;8.67;;
4957;SDS011;2494;51.872;9.688;2022-09-29T08:49:15;8.60;;;7.90;;
4957;SDS011;2494;51.872;9.688;2022-09-29T08:51:46;7.97;;;7.37;;
4957;SDS011;2494;51.872;9.688;2022-09-29T08:54:15;8.23;;;7.63;;
4957;SDS011;2494;51.872;9.688;2022-09-29T08:56:45;8.23;;;7.50;;
4957;SDS011;2494;51.872;9.688;2022-09-29T08:59:11;7.47;;;6.97;;
4957;SDS011;2494;51.872;9.688;2022-09-29T09:01:41;9.03;;;8.43;;
4957;SDS011;2494;51.872;9.688;2022-09-29T09:04:31;9.20;;;8.40;;
4957;SDS011;2494;51.872;9.688;2022-09-29T09:07:05;10.33;;;9.60;;
4957;SDS011;2494;51.872;9.688;2022-09-29T09:09:48;10.03;;;9.00;;
4957;SDS011;2494;51.872;9.688;2022-09-29T09:12:19;9.80;;;9.07;;
4957;SDS011;2494;51.872;9.688;2022-09-29T09:14:58;10.67;;;9.67;;
4957;SDS011;2494;51.872;9.688;2022-09-29T09:17:31;11.37;;;10.40;;
4957;SDS011;2494;51.872;9.688;2022-09-29T09:20:10;12.80;;;9.90;;
4957;SDS011;2494;51.872;9.688;2022-09-29T09:22:42;14.33;;;10.80;;
4957;SDS011;2494;51.872;9.688;2022-09-29T09:25:16;12.43;;;10.07;;
4957;SDS011;2494;51.872;9.688;2022-09-29T09:27:45;10.60;;;9.70;;
4957;SDS011;2494;51.872;9.688;2022-09-29T09:30:15;10.97;;;10.00;;
4957;SDS011;2494;51.872;9.688;2022-09-29T09:32:44;10.90;;;9.87;;
4957;SDS011;2494;51.872;9.688;2022-09-29T09:35:20;10.93;;;9.93;;
4957;SDS011;2494;51.872;9.688;2022-09-29T09:37:51;21.67;;;9.93;;
4957;SDS011;2494;51.872;9.688;2022-09-29T09:40:19;10.40;;;9.17;;
4957;SDS011;2494;51.872;9.688;2022-09-29T09:42:49;11.10;;;9.93;;
4957;SDS011;2494;51.872;9.688;2022-09-29T09:45:25;15.33;;;10.80;;
4957;SDS011;2494;51.872;9.688;2022-09-29T09:47:52;9.70;;;8.83;;
4957;SDS011;2494;51.872;9.688;2022-09-29T09:50:22;12.10;;;9.10;;
4957;SDS011;2494;51.872;9.688;2022-09-29T09:52:52;10.90;;;9.97;;
4957;SDS011;2494;51.872;9.688;2022-09-29T09:55:22;11.00;;;10.00;;
4957;SDS011;2494;51.872;9.688;2022-09-29T09:57:59;10.53;;;9.60;;
4957;SDS011;2494;51.872;9.688;2022-09-29T10:00:30;12.67;;;11.57;;
4957;SDS011;2494;51.872;9.688;2022-09-29T10:03:00;10.70;;;9.67;;
4957;SDS011;2494;51.872;9.688;2022-09-29T10:05:28;13.37;;;10.10;;
4957;SDS011;2494;51.872;9.688;2022-09-29T10:07:59;12.07;;;10.97;;
4957;SDS011;2494;51.872;9.688;2022-09-29T10:10:26;12.53;;;10.90;;
4957;SDS011;2494;51.872;9.688;2022-09-29T10:12:55;13.60;;;12.23;;
4957;SDS011;2494;51.872;9.688;2022-09-29T10:15:23;13.40;;;12.07;;
4957;SDS011;2494;51.872;9.688;2022-09-29T10:17:55;12.40;;;11.10;;
4957;SDS011;2494;51.872;9.688;2022-09-29T10:20:28;14.23;;;12.80;;
4957;SDS011;2494;51.872;9.688;2022-09-29T10:23:19;12.87;;;11.67;;
4957;SDS011;2494;51.872;9.688;2022-09-29T10:25:50;13.47;;;12.17;;
4957;SDS011;2494;51.872;9.688;2022-09-29T10:28:18;13.83;;;12.43;;
4957;SDS011;2494;51.872;9.688;2022-09-29T10:30:45;12.53;;;11.43;;
4957;SDS011;2494;51.872;9.688;2022-09-29T10:33:13;11.77;;;10.67;;
4957;SDS011;2494;51.872;9.688;2022-09-29T10:35:41;12.90;;;11.70;;
4957;SDS011;2494;51.872;9.688;2022-09-29T10:38:14;12.10;;;10.97;;
4957;SDS011;2494;51.872;9.688;2022-09-29T10:40:53;14.27;;;12.30;;
4957;SDS011;2494;51.872;9.688;2022-09-29T10:43:24;13.73;;;12.33;;
4957;SDS011;2494;51.872;9.688;2022-09-29T10:46:04;15.27;;;13.43;;
4957;SDS011;2494;51.872;9.688;2022-09-29T10:48:31;13.10;;;11.70;;
4957;SDS011;2494;51.872;9.688;2022-09-29T10:50:58;13.57;;;12.23;;
4957;SDS011;2494;51.872;9.688;2022-09-29T10:53:28;14.43;;;12.83;;
4957;SDS011;2494;51.872;9.688;2022-09-29T10:56:00;14.83;;;13.33;;
4957;SDS011;2494;51.872;9.688;2022-09-29T10:58:27;12.97;;;11.70;;
4957;SDS011;2494;51.872;9.688;2022-09-29T11:01:02;14.17;;;12.77;;
4957;SDS011;2494;51.872;9.688;2022-09-29T11:03:31;13.60;;;12.20;;
4957;SDS011;2494;51.872;9.688;2022-09-29T11:06:00;12.67;;;11.37;;
4957;SDS011;2494;51.872;9.688;2022-09-29T11:08:27;12.40;;;11.20;;
4957;SDS011;2494;51.872;9.688;2022-09-29T11:11:03;13.20;;;11.90;;
4957;SDS011;2494;51.872;9.688;2022-09-29T11:13:34;14.67;;;13.27;;
4957;SDS011;2494;51.872;9.688;2022-09-29T11:16:05;15.13;;;13.60;;
4957;SDS011;2494;51.872;9.688;2022-09-29T11:18:37;13.63;;;12.30;;
4957;SDS011;2494;51.872;9.688;2022-09-29T11:21:06;15.00;;;13.47;;
4957;SDS011;2494;51.872;9.688;2022-09-29T11:23:34;14.17;;;12.77;;
4957;SDS011;2494;51.872;9.688;2022-09-29T11:28:56;14.37;;;12.70;;
4957;SDS011;2494;51.872;9.688;2022-09-29T11:31:30;14.27;;;12.63;;
4957;SDS011;2494;51.872;9.688;2022-09-29T11:34:01;13.73;;;12.30;;
4957;SDS011;2494;51.872;9.688;2022-09-29T11:36:34;15.13;;;13.57;;
4957;SDS011;2494;51.872;9.688;2022-09-29T11:39:07;13.87;;;12.50;;
4957;SDS011;2494;51.872;9.688;2022-09-29T11:41:53;10.77;;;9.87;;
4957;SDS011;2494;51.872;9.688;2022-09-29T11:47:08;11.70;;;10.60;;
4957;SDS011;2494;51.872;9.688;2022-09-29T11:49:44;10.30;;;9.33;;
4957;SDS011;2494;51.872;9.688;2022-09-29T11:52:25;10.00;;;9.20;;
4957;SDS011;2494;51.872;9.688;2022-09-29T11:54:58;11.17;;;10.23;;
4957;SDS011;2494;51.872;9.688;2022-09-29T11:57:34;10.90;;;8.53;;
4957;SDS011;2494;51.872;9.688;2022-09-29T12:00:07;9.53;;;8.83;;
4957;SDS011;2494;51.872;9.688;2022-09-29T12:02:44;9.40;;;8.70;;
4957;SDS011;2494;51.872;9.688;2022-09-29T12:05:15;8.73;;;8.07;;
4957;SDS011;2494;51.872;9.688;2022-09-29T12:07:44;6.83;;;6.33;;
4957;SDS011;2494;51.872;9.688;2022-09-29T12:10:17;7.43;;;6.83;;
4957;SDS011;2494;51.872;9.688;2022-09-29T12:12:49;8.20;;;7.03;;
4957;SDS011;2494;51.872;9.688;2022-09-29T12:15:22;6.53;;;6.13;;
4957;SDS011;2494;51.872;9.688;2022-09-29T12:17:55;5.47;;;5.17;;
4957;SDS011;2494;51.872;9.688;2022-09-29T12:20:24;8.10;;;7.33;;
4957;SDS011;2494;51.872;9.688;2022-09-29T12:22:52;7.63;;;7.13;;
4957;SDS011;2494;51.872;9.688;2022-09-29T12:25:21;7.90;;;7.40;;
4957;SDS011;2494;51.872;9.688;2022-09-29T12:27:53;6.10;;;5.60;;
4957;SDS011;2494;51.872;9.688;2022-09-29T12:30:22;6.63;;;6.27;;
4957;SDS011;2494;51.872;9.688;2022-09-29T12:32:50;5.83;;;5.33;;
4957;SDS011;2494;51.872;9.688;2022-09-29T12:35:21;8.13;;;7.40;;
4957;SDS011;2494;51.872;9.688;2022-09-29T12:37:50;7.57;;;7.07;;
4957;SDS011;2494;51.872;9.688;2022-09-29T12:40:19;7.50;;;6.90;;
4957;SDS011;2494;51.872;9.688;2022-09-29T12:42:53;7.80;;;7.27;;
4957;SDS011;2494;51.872;9.688;2022-09-29T12:45:22;7.17;;;6.67;;
4957;SDS011;2494;51.872;9.688;2022-09-29T12:47:53;6.70;;;6.20;;
4957;SDS011;2494;51.872;9.688;2022-09-29T12:50:24;3.50;;;3.30;;
4957;SDS011;2494;51.872;9.688;2022-09-29T12:52:54;2.50;;;2.30;;
4957;SDS011;2494;51.872;9.688;2022-09-29T12:55:23;1.80;;;1.70;;
4957;SDS011;2494;51.872;9.688;2022-09-29T12:57:54;1.90;;;1.80;;
4957;SDS011;2494;51.872;9.688;2022-09-29T13:00:21;2.03;;;1.83;;
4957;SDS011;2494;51.872;9.688;2022-09-29T13:02:54;1.97;;;1.87;;
4957;SDS011;2494;51.872;9.688;2022-09-29T13:05:31;1.70;;;1.60;;
4957;SDS011;2494;51.872;9.688;2022-09-29T13:08:21;1.70;;;1.60;;
4957;SDS011;2494;51.872;9.688;2022-09-29T13:10:55;3.23;;;1.80;;
4957;SDS011;2494;51.872;9.688;2022-09-29T13:13:43;2.33;;;2.13;;
4957;SDS011;2494;51.872;9.688;2022-09-29T13:16:12;2.13;;;2.00;;
4957;SDS011;2494;51.872;9.688;2022-09-29T13:18:45;2.27;;;1.90;;
4957;SDS011;2494;51.872;9.688;2022-09-29T13:21:18;2.33;;;2.13;;
4957;SDS011;2494;51.872;9.688;2022-09-29T13:23:49;3.60;;;1.83;;
4957;SDS011;2494;51.872;9.688;2022-09-29T13:26:21;2.07;;;1.77;;
4957;SDS011;2494;51.872;9.688;2022-09-29T13:28:51;1.90;;;1.80;;
4957;SDS011;2494;51.872;9.688;2022-09-29T13:31:20;2.20;;;2.00;;
4957;SDS011;2494;51.872;9.688;2022-09-29T13:33:50;2.07;;;1.93;;
4957;SDS011;2494;51.872;9.688;2022-09-29T13:36:23;3.27;;;2.10;;
4957;SDS011;2494;51.872;9.688;2022-09-29T13:38:52;5.13;;;2.00;;
4957;SDS011;2494;51.872;9.688;2022-09-29T13:41:31;2.60;;;2.40;;
4957;SDS011;2494;51.872;9.688;2022-09-29T13:44:03;2.80;;;2.60;;
4957;SDS011;2494;51.872;9.688;2022-09-29T13:46:37;2.73;;;2.53;;
4957;SDS011;2494;51.872;9.688;2022-09-29T13:49:11;3.23;;;3.03;;
4957;SDS011;2494;51.872;9.688;2022-09-29T13:51:47;2.43;;;2.33;;
4957;SDS011;2494;51.872;9.688;2022-09-29T13:54:20;2.63;;;2.43;;
4957;SDS011;2494;51.872;9.688;2022-09-29T13:56:47;2.70;;;2.50;;
4957;SDS011;2494;51.872;9.688;2022-09-29T13:59:14;2.33;;;2.23;;
4957;SDS011;2494;51.872;9.688;2022-09-29T14:01:44;3.77;;;2.23;;
4957;SDS011;2494;51.872;9.688;2022-09-29T14:07:00;2.40;;;2.20;;
4957;SDS011;2494;51.872;9.688;2022-09-29T14:09:28;3.20;;;3.00;;
4957;SDS011;2494;51.872;9.688;2022-09-29T14:11:57;2.97;;;2.77;;
4957;SDS011;2494;51.872;9.688;2022-09-29T14:14:28;2.40;;;2.30;;
4957;SDS011;2494;51.872;9.688;2022-09-29T14:16:56;2.23;;;2.13;;
4957;SDS011;2494;51.872;9.688;2022-09-29T14:19:36;3.00;;;2.57;;
4957;SDS011;2494;51.872;9.688;2022-09-29T14:22:18;2.73;;;2.53;;
4957;SDS011;2494;51.872;9.688;2022-09-29T14:24:53;5.30;;;4.80;;
4957;SDS011;2494;51.872;9.688;2022-09-29T14:27:30;2.53;;;2.33;;
4957;SDS011;2494;51.872;9.688;2022-09-29T14:30:00;3.50;;;3.30;;
4957;SDS011;2494;51.872;9.688;2022-09-29T14:32:32;5.57;;;5.07;;
4957;SDS011;2494;51.872;9.688;2022-09-29T14:35:00;4.73;;;4.30;;
4957;SDS011;2494;51.872;9.688;2022-09-29T14:37:29;5.10;;;3.80;;
4957;SDS011;2494;51.872;9.688;2022-09-29T14:39:56;2.27;;;2.10;;
4957;SDS011;2494;51.872;9.688;2022-09-29T14:42:41;2.40;;;2.20;;
4957;SDS011;2494;51.872;9.688;2022-09-29T14:45:08;2.10;;;2.00;;
4957;SDS011;2494;51.872;9.688;2022-09-29T14:47:56;2.07;;;1.97;;
4957;SDS011;2494;51.872;9.688;2022-09-29T14:50:45;2.53;;;2.33;;
4957;SDS011;2494;51.872;9.688;2022-09-29T14:56:26;3.10;;;2.90;;
4957;SDS011;2494;51.872;9.688;2022-09-29T14:59:01;3.93;;;3.63;;
4957;SDS011;2494;51.872;9.688;2022-09-29T15:01:33;3.70;;;3.50;;
4957;SDS011;2494;51.872;9.688;2022-09-29T15:04:08;2.93;;;2.73;;
4957;SDS011;2494;51.872;9.688;2022-09-29T15:06:44;5.13;;;4.83;;
4957;SDS011;2494;51.872;9.688;2022-09-29T15:09:14;4.07;;;3.67;;
4957;SDS011;2494;51.872;9.688;2022-09-29T15:11:43;3.03;;;2.83;;
4957;SDS011;2494;51.872;9.688;2022-09-29T15:14:24;2.27;;;2.17;;
4957;SDS011;2494;51.872;9.688;2022-09-29T15:16:54;2.07;;;1.97;;
4957;SDS011;2494;51.872;9.688;2022-09-29T15:19:29;3.43;;;2.40;;
4957;SDS011;2494;51.872;9.688;2022-09-29T15:22:00;3.40;;;1.90;;
4957;SDS011;2494;51.872;9.688;2022-09-29T15:24:37;2.40;;;1.77;;
4957;SDS011;2494;51.872;9.688;2022-09-29T15:27:15;2.50;;;1.80;;
4957;SDS011;2494;51.872;9.688;2022-09-29T15:29:44;2.40;;;2.20;;
4957;SDS011;2494;51.872;9.688;2022-09-29T15:32:16;2.50;;;1.70;;
4957;SDS011;2494;51.872;9.688;2022-09-29T15:34:44;1.90;;;1.80;;